createdAt,value
2022-11-10T00:00:49.799Z,48.13
2022-11-10T00:02:11.423Z,48.15
2022-11-10T00:03:33.618Z,48.12
2022-11-10T00:04:54.149Z,48.12
2022-11-10T00:06:15.562Z,48.15
2022-11-10T00:07:37.896Z,48.15
2022-11-10T00:08:59.072Z,48.12
2022-11-10T00:10:19.987Z,48.05
2022-11-10T00:11:42.468Z,48.03
2022-11-10T00:13:03.207Z,48.05
2022-11-10T00:14:24.565Z,48.04
2022-11-10T00:15:45.110Z,48.01
2022-11-10T00:17:05.763Z,47.87
2022-11-10T00:18:27.538Z,47.99
2022-11-10T00:19:48.283Z,48.05
2022-11-10T00:21:09.971Z,48.17
2022-11-10T00:22:31.067Z,48.19
2022-11-10T00:23:51.454Z,48.16
2022-11-10T00:25:12.320Z,48.15
2022-11-10T00:26:33.313Z,48.05
2022-11-10T00:27:54.133Z,47.88
2022-11-10T00:29:16.014Z,47.71
2022-11-10T00:30:37.245Z,47.63
2022-11-10T00:31:59.417Z,47.65
2022-11-10T00:33:20.382Z,47.60
2022-11-10T00:34:41.893Z,47.57
2022-11-10T00:36:02.788Z,47.54
2022-11-10T00:37:24.642Z,47.52
2022-11-10T00:38:46.687Z,47.35
2022-11-10T00:40:08.972Z,47.61
2022-11-10T00:41:30.139Z,47.82
2022-11-10T00:42:51.634Z,47.85
2022-11-10T00:44:12.447Z,47.85
2022-11-10T00:45:33.203Z,47.83
2022-11-10T00:46:53.841Z,47.80
2022-11-10T00:48:14.353Z,47.85
2022-11-10T00:49:35.190Z,47.71
2022-11-10T00:50:55.969Z,47.61
2022-11-10T00:52:16.973Z,47.94
2022-11-10T00:53:37.929Z,48.09
2022-11-10T00:54:58.819Z,48.08
2022-11-10T00:56:20.646Z,48.21
2022-11-10T00:57:41.754Z,48.30
2022-11-10T00:59:03.114Z,48.36
2022-11-10T01:00:23.958Z,48.43
2022-11-10T01:01:44.611Z,48.47
2022-11-10T01:03:05.693Z,48.52
2022-11-10T01:04:26.175Z,48.53
2022-11-10T01:05:46.790Z,48.58
2022-11-10T01:07:09.202Z,48.59
2022-11-10T01:08:30.855Z,48.62
2022-11-10T01:09:52.724Z,48.67
2022-11-10T01:11:17.269Z,48.68
2022-11-10T01:12:38.051Z,48.71
2022-11-10T01:13:58.881Z,48.76
2022-11-10T01:15:24.375Z,48.81
2022-11-10T01:16:42.310Z,48.85
2022-11-10T01:18:03.128Z,48.88
2022-11-10T01:19:23.975Z,48.90
2022-11-10T01:20:50.558Z,48.97
2022-11-10T01:22:11.366Z,49.00
2022-11-10T01:23:32.852Z,48.99
2022-11-10T01:24:53.892Z,49.02
2022-11-10T01:26:15.366Z,49.02
2022-11-10T01:27:36.004Z,49.06
2022-11-10T01:28:56.811Z,49.06
2022-11-10T01:30:18.826Z,49.16
2022-11-10T01:31:40.264Z,49.18
2022-11-10T01:33:01.150Z,49.17
2022-11-10T01:34:22.456Z,49.18
2022-11-10T01:35:43.288Z,49.28
2022-11-10T01:37:04.303Z,49.30
2022-11-10T01:38:29.200Z,49.37
2022-11-10T01:39:49.882Z,49.39
2022-11-10T01:41:12.971Z,49.45
2022-11-10T01:42:49.249Z,49.44
2022-11-10T01:44:21.796Z,49.42
2022-11-10T01:45:57.524Z,49.39
2022-11-10T01:47:18.292Z,49.42
2022-11-10T01:48:54.741Z,49.40
2022-11-10T01:50:16.626Z,49.50
2022-11-10T01:51:50.916Z,49.55
2022-11-10T01:53:14.757Z,49.54
2022-11-10T01:55:50.784Z,49.56
2022-11-10T01:57:12.222Z,49.58
2022-11-10T01:58:33.991Z,49.60
2022-11-10T01:59:54.564Z,49.58
2022-11-10T02:01:15.917Z,49.61
2022-11-10T02:02:59.162Z,49.59
2022-11-10T02:04:19.803Z,49.56
2022-11-10T02:05:40.278Z,49.52
2022-11-10T02:07:00.640Z,49.54
2022-11-10T02:08:21.787Z,49.56
2022-11-10T02:09:43.067Z,49.58
2022-11-10T02:11:04.094Z,49.57
2022-11-10T02:12:25.545Z,49.58
2022-11-10T02:13:46.049Z,49.61
2022-11-10T02:15:08.633Z,49.69
2022-11-10T02:16:29.616Z,49.68
2022-11-10T02:17:51.025Z,49.67
2022-11-10T02:20:34.675Z,49.71
2022-11-10T02:21:56.887Z,49.73
2022-11-10T02:23:33.018Z,49.71
2022-11-10T02:24:53.849Z,49.66
2022-11-10T02:27:35.073Z,49.64
2022-11-10T02:28:56.565Z,49.63
2022-11-10T02:30:17.344Z,49.60
2022-11-10T02:31:38.320Z,49.63
2022-11-10T02:32:58.678Z,49.63
2022-11-10T02:34:19.470Z,49.62
2022-11-10T02:35:40.761Z,49.59
2022-11-10T02:37:01.672Z,49.63
2022-11-10T02:38:22.216Z,49.59
2022-11-10T02:39:42.448Z,49.57
2022-11-10T02:41:03.205Z,49.59
2022-11-10T02:42:24.089Z,49.61
2022-11-10T02:43:44.917Z,49.58
2022-11-10T02:45:06.715Z,49.56
2022-11-10T02:46:28.517Z,49.55
2022-11-10T02:47:50.060Z,49.51
2022-11-10T02:49:11.139Z,49.50
2022-11-10T02:50:32.070Z,49.49
2022-11-10T02:51:52.448Z,49.62
2022-11-10T02:53:13.347Z,49.67
2022-11-10T02:54:34.243Z,49.60
2022-11-10T02:55:55.048Z,49.59
2022-11-10T02:57:15.650Z,49.56
2022-11-10T02:58:36.507Z,49.50
2022-11-10T02:59:57.829Z,49.48
2022-11-10T03:01:18.310Z,49.45
2022-11-10T03:02:39.008Z,49.48
2022-11-10T03:04:00.503Z,49.55
2022-11-10T03:05:21.164Z,49.63
2022-11-10T03:06:42.010Z,49.65
2022-11-10T03:08:02.975Z,49.70
2022-11-10T03:09:24.567Z,49.79
2022-11-10T03:10:45.648Z,49.77
2022-11-10T03:12:06.276Z,49.76
2022-11-10T03:13:35.678Z,49.86
2022-11-10T03:16:10.789Z,49.92
2022-11-10T03:17:31.581Z,49.95
2022-11-10T03:18:52.626Z,50.06
2022-11-10T03:20:14.003Z,50.03
2022-11-10T03:21:34.700Z,50.00
2022-11-10T03:23:00.971Z,49.99
2022-11-10T03:24:21.355Z,50.00
2022-11-10T03:25:42.601Z,49.96
2022-11-10T03:27:03.316Z,49.97
2022-11-10T03:28:24.228Z,50.02
2022-11-10T03:29:44.947Z,49.98
2022-11-10T03:31:06.264Z,49.99
2022-11-10T03:32:26.971Z,50.01
2022-11-10T03:33:47.596Z,50.02
2022-11-10T03:35:08.546Z,50.02
2022-11-10T03:36:29.267Z,50.03
2022-11-10T03:37:50.043Z,50.01
2022-11-10T03:39:10.966Z,50.02
2022-11-10T03:40:45.498Z,50.08
2022-11-10T03:43:17.202Z,50.09
2022-11-10T03:44:38.070Z,50.09
2022-11-10T03:45:58.952Z,50.04
2022-11-10T03:47:20.080Z,50.12
2022-11-10T03:48:41.172Z,50.18
2022-11-10T03:50:02.063Z,50.26
2022-11-10T03:51:23.619Z,50.30
2022-11-10T03:52:46.423Z,50.36
2022-11-10T03:54:06.716Z,50.42
2022-11-10T03:55:27.589Z,50.50
2022-11-10T03:56:48.080Z,50.50
2022-11-10T03:58:08.772Z,50.53
2022-11-10T03:59:29.842Z,50.62
2022-11-10T04:00:52.935Z,50.62
2022-11-10T04:02:13.889Z,50.70
2022-11-10T04:03:35.301Z,50.77
2022-11-10T04:04:55.839Z,50.84
2022-11-10T04:06:16.986Z,50.85
2022-11-10T04:07:38.382Z,50.90
2022-11-10T04:08:59.125Z,50.90
2022-11-10T04:10:20.400Z,50.96
2022-11-10T04:11:40.972Z,51.02
2022-11-10T04:13:02.022Z,51.09
2022-11-10T04:14:22.961Z,51.14
2022-11-10T04:15:44.323Z,51.19
2022-11-10T04:17:04.663Z,51.34
2022-11-10T04:18:25.821Z,51.36
2022-11-10T04:19:46.913Z,51.40
2022-11-10T04:21:07.667Z,51.42
2022-11-10T04:22:28.728Z,51.41
2022-11-10T04:23:49.928Z,51.42
2022-11-10T04:25:11.103Z,51.41
2022-11-10T04:26:31.759Z,51.42
2022-11-10T04:27:52.508Z,51.43
2022-11-10T04:29:14.338Z,51.45
2022-11-10T04:30:35.155Z,51.43
2022-11-10T04:31:55.776Z,51.42
2022-11-10T04:33:16.670Z,51.42
2022-11-10T04:34:37.338Z,51.49
2022-11-10T04:35:58.093Z,51.47
2022-11-10T04:37:19.085Z,51.52
2022-11-10T04:38:39.871Z,51.53
2022-11-10T04:40:00.702Z,51.57
2022-11-10T04:41:22.804Z,51.57
2022-11-10T04:42:43.456Z,51.53
2022-11-10T04:44:05.057Z,51.54
2022-11-10T04:45:25.866Z,51.53
2022-11-10T04:46:46.489Z,51.53
2022-11-10T04:48:06.837Z,51.54
2022-11-10T04:49:27.797Z,51.63
2022-11-10T04:50:48.611Z,51.59
2022-11-10T04:52:10.315Z,51.63
2022-11-10T04:53:31.687Z,51.66
2022-11-10T04:54:52.373Z,51.64
2022-11-10T04:56:15.742Z,51.67
2022-11-10T04:57:36.432Z,51.75
2022-11-10T04:58:57.829Z,51.88
2022-11-10T05:00:18.926Z,51.93
2022-11-10T05:01:39.788Z,51.93
2022-11-10T05:03:03.607Z,51.92
2022-11-10T05:04:24.762Z,51.89
2022-11-10T05:05:45.203Z,51.87
2022-11-10T05:07:06.109Z,51.90
2022-11-10T05:08:28.041Z,51.87
2022-11-10T05:09:48.707Z,51.87
2022-11-10T05:11:10.341Z,51.87
2022-11-10T05:12:32.013Z,51.87
2022-11-10T05:13:53.325Z,51.88
2022-11-10T05:15:13.754Z,51.88
2022-11-10T05:16:34.449Z,51.93
2022-11-10T05:17:55.361Z,51.99
2022-11-10T05:19:16.156Z,51.94
2022-11-10T05:20:37.495Z,51.92
2022-11-10T05:21:58.240Z,51.87
2022-11-10T05:23:22.038Z,51.84
2022-11-10T05:24:43.015Z,51.84
2022-11-10T05:27:20.594Z,51.77
2022-11-10T05:28:42.088Z,51.78
2022-11-10T05:30:03.493Z,51.78
2022-11-10T05:31:24.374Z,51.75
2022-11-10T05:32:45.834Z,51.77
2022-11-10T05:34:06.208Z,51.73
2022-11-10T05:35:27.291Z,51.76
2022-11-10T05:36:47.931Z,51.78
2022-11-10T05:39:30.002Z,51.81
2022-11-10T05:43:32.142Z,51.63
2022-11-10T05:47:36.639Z,51.24
2022-11-10T05:48:57.754Z,51.24
2022-11-10T05:50:19.768Z,51.25
2022-11-10T05:51:40.380Z,51.25
2022-11-10T05:53:01.377Z,51.30
2022-11-10T05:54:22.035Z,51.26
2022-11-10T05:55:43.172Z,51.26
2022-11-10T05:57:04.095Z,51.29
2022-11-10T05:58:25.509Z,51.31
2022-11-10T05:59:46.968Z,51.30
2022-11-10T06:01:07.997Z,51.32
2022-11-10T06:02:28.730Z,51.31
2022-11-10T06:03:50.859Z,51.38
2022-11-10T06:05:12.037Z,51.38
2022-11-10T06:06:32.915Z,51.38
2022-11-10T06:07:53.391Z,51.35
2022-11-10T06:09:14.209Z,51.42
2022-11-10T06:10:35.543Z,51.43
2022-11-10T06:11:56.133Z,51.43
2022-11-10T06:13:17.322Z,51.43
2022-11-10T06:14:38.435Z,51.43
2022-11-10T06:15:58.925Z,51.42
2022-11-10T06:17:21.789Z,51.41
2022-11-10T06:18:42.350Z,51.39
2022-11-10T06:20:04.144Z,51.36
2022-11-10T06:21:25.666Z,51.48
2022-11-10T06:23:07.122Z,51.49
2022-11-10T06:24:28.010Z,51.43
2022-11-10T06:25:49.347Z,51.17
2022-11-10T06:27:10.189Z,51.11
2022-11-10T06:28:30.968Z,51.14
2022-11-10T06:29:52.726Z,51.21
2022-11-10T06:31:13.362Z,51.24
2022-11-10T06:32:34.274Z,51.28
2022-11-10T06:33:55.047Z,51.27
2022-11-10T06:35:15.922Z,51.30
2022-11-10T06:36:36.548Z,51.25
2022-11-10T10:07:26.175Z,53.85
2022-11-10T10:10:55.919Z,53.66
2022-11-10T10:12:23.707Z,53.77
2022-11-10T10:14:00.485Z,53.60
2022-11-10T10:15:30.949Z,53.28
2022-11-10T10:18:31.863Z,51.41
2022-11-10T10:20:05.331Z,51.08
2022-11-10T10:21:44.360Z,51.04
2022-11-10T10:24:26.548Z,50.22
2022-11-10T10:25:50.174Z,50.16
2022-11-10T10:27:13.940Z,50.16
2022-11-10T10:28:38.274Z,49.96
2022-11-10T10:29:59.184Z,49.70
2022-11-10T10:31:24.400Z,49.16
2022-11-10T10:32:44.712Z,48.80
2022-11-10T10:34:13.946Z,48.55
2022-11-10T10:35:40.576Z,47.43
2022-11-10T10:36:57.278Z,47.74
2022-11-10T10:38:30.224Z,47.61
2022-11-10T10:39:52.543Z,47.39
2022-11-10T10:42:37.559Z,46.65
2022-11-10T10:44:00.644Z,45.97
2022-11-10T10:45:26.022Z,46.31
2022-11-10T10:47:00.111Z,45.87
2022-11-10T10:48:23.480Z,46.00
2022-11-10T10:49:44.278Z,46.04
2022-11-10T10:51:05.190Z,45.89
2022-11-10T10:52:26.088Z,45.37
2022-11-10T10:53:47.219Z,45.28
2022-11-10T10:55:08.009Z,46.81
2022-11-10T10:56:31.138Z,47.36
2022-11-10T10:57:55.073Z,47.42
2022-11-10T10:59:20.911Z,48.12
2022-11-10T11:00:51.229Z,48.31
2022-11-10T11:02:29.361Z,47.47
2022-11-10T11:03:51.246Z,47.24
2022-11-10T11:06:30.729Z,47.69
2022-11-10T11:07:59.891Z,47.70
2022-11-10T11:10:44.494Z,47.67
2022-11-10T11:12:08.112Z,47.63
2022-11-10T11:13:28.884Z,47.77
2022-11-10T11:14:49.734Z,47.79
2022-11-10T11:16:11.318Z,47.78
2022-11-10T11:17:32.161Z,47.80
2022-11-10T11:18:53.733Z,47.76
2022-11-10T11:20:16.345Z,47.78
2022-11-10T11:23:38.346Z,47.71
2022-11-10T11:26:33.139Z,47.66
2022-11-10T11:28:24.297Z,47.63
2022-11-10T11:29:48.958Z,47.63
2022-11-10T11:31:42.993Z,47.59
2022-11-10T11:33:11.585Z,47.56
2022-11-10T11:35:10.150Z,47.44
2022-11-10T11:38:07.557Z,47.04
2022-11-10T11:39:53.635Z,47.00
2022-11-10T11:41:26.599Z,47.01
2022-11-10T11:43:01.573Z,46.90
2022-11-10T11:44:38.573Z,46.86
2022-11-10T11:46:06.056Z,46.76
2022-11-10T11:47:54.958Z,46.51
2022-11-10T11:49:36.266Z,46.49
2022-11-10T11:50:58.563Z,46.40
2022-11-10T11:54:09.154Z,46.22
2022-11-10T11:55:39.178Z,46.67
2022-11-10T11:57:20.133Z,46.58
2022-11-10T11:58:44.729Z,46.47
2022-11-10T12:00:08.257Z,46.23
2022-11-10T12:01:49.241Z,46.32
2022-11-10T12:04:42.886Z,46.09
2022-11-10T12:06:19.288Z,46.08
2022-11-10T12:07:46.210Z,46.27
2022-11-10T12:09:43.015Z,46.24
2022-11-10T12:12:49.490Z,46.46
2022-11-10T12:14:28.964Z,46.50
2022-11-10T12:17:08.756Z,46.83
2022-11-10T12:18:34.583Z,47.42
2022-11-10T12:20:27.664Z,47.57
2022-11-10T12:21:51.368Z,47.58
2022-11-10T12:23:31.273Z,47.91
2022-11-10T12:25:01.013Z,48.08
2022-11-10T12:26:40.391Z,48.49
2022-11-10T12:28:20.349Z,48.69
2022-11-10T12:31:02.013Z,48.72
2022-11-10T12:32:27.910Z,48.60
2022-11-10T12:33:53.339Z,48.66
2022-11-10T12:35:28.006Z,48.53
2022-11-10T12:36:49.978Z,48.58
2022-11-10T12:39:44.236Z,48.05
2022-11-10T12:41:08.967Z,47.85
2022-11-10T12:42:30.924Z,47.77
2022-11-10T12:44:16.154Z,47.62
2022-11-10T12:45:45.951Z,47.61
2022-11-10T12:47:07.230Z,47.58
2022-11-10T12:48:32.237Z,47.83
2022-11-10T12:53:03.076Z,47.75
2022-11-10T12:54:23.316Z,47.72
2022-11-10T12:55:47.005Z,47.89
2022-11-10T12:57:11.301Z,47.89
2022-11-10T12:58:36.339Z,47.88
2022-11-10T13:00:05.323Z,47.90
2022-11-10T13:01:27.022Z,47.95
2022-11-10T13:02:48.091Z,48.12
2022-11-10T13:04:16.706Z,48.61
2022-11-10T13:05:40.029Z,48.55
2022-11-10T13:07:02.366Z,48.79
2022-11-10T13:08:28.410Z,48.86
2022-11-10T13:09:49.287Z,48.87
2022-11-10T13:11:17.167Z,48.80
2022-11-10T13:12:39.767Z,48.59
2022-11-10T13:14:03.856Z,48.37
2022-11-10T13:15:45.418Z,48.31
2022-11-10T13:17:06.304Z,48.30
2022-11-10T13:18:34.832Z,48.26
2022-11-10T13:19:58.947Z,48.53
2022-11-10T13:21:19.264Z,48.52
2022-11-10T13:22:40.309Z,48.85
2022-11-10T13:24:05.189Z,48.67
2022-11-10T13:25:38.803Z,48.79
2022-11-10T13:27:01.419Z,48.80
2022-11-10T13:28:48.978Z,48.79
2022-11-10T13:30:15.541Z,48.97
2022-11-10T13:31:38.527Z,48.93
2022-11-10T13:33:19.438Z,49.08
2022-11-10T13:34:44.117Z,48.88
2022-11-10T13:36:06.533Z,49.23
2022-11-10T13:37:34.664Z,49.11
2022-11-10T13:38:56.084Z,49.18
2022-11-10T13:40:26.924Z,49.12
2022-11-10T13:42:11.072Z,49.23
2022-11-10T13:43:32.120Z,49.32
2022-11-10T13:44:52.618Z,49.69
2022-11-10T13:46:13.692Z,49.86
2022-11-10T13:47:55.584Z,49.94
2022-11-10T13:49:40.466Z,50.03
2022-11-10T13:51:13.530Z,50.09
2022-11-10T13:52:45.143Z,50.08
2022-11-10T13:54:13.076Z,50.00
2022-11-10T13:55:54.659Z,49.97
2022-11-10T13:57:36.010Z,49.90
2022-11-10T13:58:57.725Z,49.88
2022-11-10T14:01:34.721Z,49.77
2022-11-10T14:03:10.050Z,49.62
2022-11-10T14:04:41.833Z,49.64
2022-11-10T14:06:06.146Z,49.53
2022-11-10T14:08:42.457Z,49.55
2022-11-10T14:10:10.592Z,49.53
2022-11-10T14:12:57.464Z,49.71
2022-11-10T14:14:25.016Z,49.72
2022-11-10T14:15:49.116Z,49.71
2022-11-10T14:18:43.468Z,49.75
2022-11-10T14:20:08.575Z,50.06
2022-11-10T14:21:55.355Z,50.16
2022-11-10T14:24:38.899Z,49.48
2022-11-10T17:06:34.136Z,55.09
2022-11-10T17:07:55.173Z,55.39
2022-11-10T17:09:20.204Z,55.54
2022-11-10T17:10:44.135Z,55.48
2022-11-10T17:12:08.238Z,55.40
2022-11-10T17:13:29.431Z,55.08
2022-11-10T17:14:51.233Z,54.85
2022-11-10T17:17:46.877Z,53.97
2022-11-10T17:19:08.899Z,53.68
2022-11-10T17:20:35.390Z,53.45
2022-11-10T17:21:56.906Z,53.21
2022-11-10T17:23:19.655Z,52.81
2022-11-10T17:24:43.199Z,52.56
2022-11-10T17:26:07.665Z,52.26
2022-11-10T17:27:33.941Z,52.07
2022-11-10T17:28:53.998Z,51.79
2022-11-10T17:30:16.831Z,51.53
2022-11-10T17:31:37.426Z,51.33
2022-11-10T17:33:04.617Z,51.04
2022-11-10T17:34:21.463Z,50.89
2022-11-10T17:35:46.556Z,50.71
2022-11-10T17:37:09.592Z,50.59
2022-11-10T17:38:30.987Z,50.44
2022-11-10T17:39:51.462Z,50.32
2022-11-10T17:41:18.497Z,50.17
2022-11-10T17:42:38.859Z,50.04
2022-11-10T17:43:59.716Z,49.92
2022-11-10T17:45:25.135Z,49.80
2022-11-10T17:46:46.038Z,49.76
2022-11-10T17:48:07.898Z,49.73
2022-11-10T17:49:28.698Z,49.72
2022-11-10T17:50:49.832Z,49.61
2022-11-10T17:52:12.848Z,49.45
2022-11-10T17:53:33.808Z,49.32
2022-11-10T17:54:56.893Z,49.15
2022-11-10T17:56:18.752Z,49.05
2022-11-10T17:57:39.685Z,48.99
2022-11-10T17:59:01.522Z,48.89
2022-11-10T18:00:22.667Z,48.82
2022-11-10T18:01:44.064Z,48.79
2022-11-10T18:03:05.780Z,48.71
2022-11-10T18:04:26.198Z,48.65
2022-11-10T18:05:48.501Z,48.62
2022-11-10T18:07:09.825Z,48.55
2022-11-10T18:08:30.791Z,48.48
2022-11-10T18:09:52.092Z,48.44
2022-11-10T18:11:15.067Z,48.36
2022-11-10T18:12:35.582Z,48.33
2022-11-10T18:13:56.451Z,48.26
2022-11-10T18:15:17.094Z,48.36
2022-11-10T18:16:39.027Z,48.61
2022-11-10T18:18:01.089Z,48.65
2022-11-10T18:19:22.037Z,48.75
2022-11-10T18:20:43.056Z,48.85
2022-11-10T18:22:03.935Z,48.93
2022-11-10T18:23:25.062Z,48.84
2022-11-10T18:24:46.967Z,48.80
2022-11-10T18:26:11.880Z,48.96
2022-11-10T18:27:32.946Z,49.09
2022-11-10T18:28:54.557Z,45.82
2022-11-10T18:30:16.622Z,45.38
2022-11-10T18:31:38.348Z,46.96
2022-11-10T18:33:03.654Z,48.13
2022-11-10T18:34:24.996Z,48.44
2022-11-10T18:35:45.579Z,45.02
2022-11-10T18:37:07.551Z,46.38
2022-11-10T18:38:28.512Z,46.12
2022-11-10T18:39:49.811Z,47.19
2022-11-10T18:41:10.723Z,46.09
2022-11-10T18:42:31.563Z,47.40
2022-11-10T18:43:53.315Z,47.91
2022-11-10T18:45:15.175Z,47.22
2022-11-10T18:46:35.909Z,47.40
2022-11-10T18:48:01.498Z,47.47
2022-11-10T18:49:22.140Z,47.63
2022-11-10T18:50:44.108Z,47.67
2022-11-10T18:52:04.836Z,47.73
2022-11-10T18:53:26.997Z,47.79
2022-11-10T18:54:52.255Z,47.76
2022-11-10T18:56:13.924Z,48.13
2022-11-10T18:57:35.333Z,48.29
2022-11-10T18:58:57.287Z,48.42
2022-11-10T19:00:19.464Z,48.49
2022-11-10T19:01:41.357Z,48.55
2022-11-10T19:03:02.762Z,48.65
2022-11-10T19:04:25.372Z,48.78
2022-11-10T19:05:52.084Z,48.80
2022-11-10T19:07:12.285Z,48.94
2022-11-10T19:08:33.180Z,48.99
2022-11-10T19:09:54.030Z,49.09
2022-11-10T19:11:15.985Z,49.13
2022-11-10T19:12:36.350Z,49.14
2022-11-10T19:13:59.457Z,49.21
2022-11-10T19:15:21.256Z,49.27
2022-11-10T19:16:42.892Z,49.30
2022-11-10T19:18:05.039Z,49.28
2022-11-10T19:19:26.144Z,49.40
2022-11-10T19:20:46.705Z,49.45
2022-11-10T19:22:08.960Z,49.49
2022-11-10T19:23:29.714Z,49.51
2022-11-10T19:26:21.879Z,49.53
2022-11-10T19:27:38.925Z,49.53
2022-11-10T19:29:00.108Z,49.54
2022-11-10T19:30:21.716Z,49.54
2022-11-10T19:31:42.849Z,49.58
2022-11-10T19:33:04.973Z,49.58
2022-11-10T19:34:25.797Z,49.57
2022-11-10T19:35:46.332Z,49.59
2022-11-10T19:37:07.987Z,49.62
2022-11-10T19:38:28.559Z,49.62
2022-11-10T19:39:49.569Z,49.63
2022-11-10T19:42:29.943Z,49.67
2022-11-10T19:43:51.374Z,49.68
2022-11-10T19:45:13.216Z,49.68
2022-11-10T19:46:34.055Z,49.68
2022-11-10T19:47:54.565Z,49.69
2022-11-10T19:49:15.820Z,49.71
2022-11-10T19:50:36.824Z,49.72
2022-11-10T19:51:58.176Z,49.76
2022-11-10T19:53:20.808Z,49.82
2022-11-10T19:54:42.141Z,49.85
2022-11-10T19:56:13.283Z,49.97
2022-11-10T19:57:34.180Z,49.98
2022-11-10T19:58:57.727Z,49.91
2022-11-10T20:00:19.640Z,49.87
2022-11-10T20:01:41.387Z,49.83
2022-11-10T20:03:03.449Z,49.71
2022-11-10T20:04:25.876Z,49.55
2022-11-10T20:05:47.517Z,49.45
2022-11-10T20:07:08.473Z,49.41
2022-11-10T20:08:29.624Z,49.30
2022-11-10T20:09:50.415Z,49.16
2022-11-10T20:11:13.231Z,49.00
2022-11-10T20:12:33.932Z,48.86
2022-11-10T20:13:56.264Z,48.82
2022-11-10T20:15:16.961Z,48.86
2022-11-10T20:16:39.040Z,48.94
2022-11-10T20:18:00.962Z,48.92
2022-11-10T20:19:21.527Z,48.97
2022-11-10T20:20:42.960Z,49.10
2022-11-10T20:22:04.264Z,48.91
2022-11-10T20:23:26.201Z,48.82
2022-11-10T20:24:51.031Z,48.73
2022-11-10T20:26:15.252Z,48.68
2022-11-10T20:27:35.816Z,48.67
2022-11-10T20:28:57.027Z,48.54
2022-11-10T20:30:23.487Z,48.57
2022-11-10T20:31:41.373Z,48.52
2022-11-10T20:33:03.383Z,48.48
2022-11-10T20:34:23.770Z,48.33
2022-11-10T20:35:44.565Z,48.50
2022-11-10T20:37:07.819Z,48.55
2022-11-10T20:38:28.379Z,48.45
2022-11-10T20:39:49.193Z,48.48
2022-11-10T20:42:24.637Z,48.47
2022-11-10T20:43:47.549Z,48.52
2022-11-10T20:45:11.069Z,48.62
2022-11-10T20:46:53.335Z,48.68
2022-11-10T20:47:54.563Z,48.84
2022-11-10T20:49:16.535Z,48.84
2022-11-10T20:50:39.300Z,48.84
2022-11-10T20:52:00.375Z,48.79
2022-11-10T20:53:21.711Z,48.89
2022-11-10T20:54:42.568Z,48.89
2022-11-10T20:56:04.212Z,48.91
2022-11-10T20:57:24.642Z,48.90
2022-11-10T20:58:45.402Z,48.90
2022-11-10T21:00:07.820Z,48.97
2022-11-10T21:01:28.688Z,49.12
2022-11-10T21:02:49.802Z,49.02
2022-11-10T21:04:10.497Z,49.05
2022-11-10T21:05:31.017Z,48.97
2022-11-10T21:06:51.949Z,49.00
2022-11-10T21:08:13.704Z,49.02
2022-11-10T21:09:35.288Z,48.96
2022-11-10T21:10:57.627Z,48.86
2022-11-10T21:12:20.375Z,48.80
2022-11-10T21:13:42.187Z,48.75
2022-11-10T21:15:04.915Z,48.76
2022-11-10T21:16:25.286Z,48.73
2022-11-10T21:17:47.470Z,48.69
2022-11-10T21:19:08.094Z,48.69
2022-11-10T21:20:32.234Z,48.66
2022-11-10T21:21:53.915Z,48.62
2022-11-10T21:23:15.527Z,48.54
2022-11-10T21:24:36.905Z,48.38
2022-11-10T21:25:58.786Z,48.31
2022-11-10T21:27:19.645Z,48.32
2022-11-10T21:28:41.356Z,48.21
2022-11-10T21:30:02.004Z,48.22
2022-11-10T21:31:24.171Z,48.16
2022-11-10T21:32:44.997Z,48.03
2022-11-10T21:34:05.916Z,48.03
2022-11-10T21:35:28.009Z,47.98
2022-11-10T21:36:48.455Z,47.98
2022-11-10T21:38:11.938Z,47.77
2022-11-10T21:39:33.327Z,47.67
2022-11-10T21:40:55.084Z,47.65
2022-11-10T21:42:15.645Z,47.48
2022-11-10T21:43:36.137Z,47.37
2022-11-10T21:44:56.960Z,47.28
2022-11-10T21:46:18.282Z,47.89
2022-11-10T21:47:38.715Z,48.35
2022-11-10T21:49:04.552Z,48.16
2022-11-10T21:50:22.298Z,48.00
2022-11-10T21:51:42.858Z,47.92
2022-11-10T21:53:07.744Z,47.91
2022-11-10T21:54:28.165Z,47.95
2022-11-10T21:55:49.382Z,48.03
2022-11-10T21:57:11.145Z,48.09
2022-11-10T21:58:34.430Z,48.16
2022-11-10T21:59:54.873Z,48.25
2022-11-10T22:01:17.683Z,48.31
2022-11-10T22:02:38.686Z,48.33
2022-11-10T22:03:59.530Z,48.42
2022-11-10T22:06:31.880Z,48.52
2022-11-10T22:07:53.856Z,48.53
2022-11-10T22:09:14.575Z,48.59
2022-11-10T22:10:36.937Z,48.61
2022-11-10T22:11:58.106Z,48.63
2022-11-10T22:13:18.849Z,48.63
2022-11-10T22:14:40.974Z,48.64
2022-11-10T22:16:03.430Z,48.67
2022-11-10T22:17:23.981Z,48.67
2022-11-10T22:18:44.757Z,48.73
2022-11-10T22:20:07.486Z,48.73
2022-11-10T22:21:28.884Z,48.79
2022-11-10T22:22:49.419Z,48.80
2022-11-10T22:24:10.624Z,48.83
2022-11-10T22:25:31.746Z,48.86
2022-11-10T22:26:55.745Z,48.89
2022-11-10T22:28:18.764Z,48.91
2022-11-10T22:29:39.501Z,48.96
2022-11-10T22:31:01.963Z,48.97
2022-11-10T22:32:22.803Z,49.01
2022-11-10T22:33:43.151Z,49.01
2022-11-10T22:35:04.756Z,49.05
2022-11-10T22:36:25.194Z,49.03
2022-11-10T22:37:46.233Z,49.00
2022-11-10T22:39:06.949Z,49.04
2022-11-10T22:40:27.843Z,49.11
2022-11-10T22:41:48.814Z,49.13
2022-11-10T22:43:09.305Z,49.18
2022-11-10T22:44:30.074Z,49.17
2022-11-10T22:45:51.188Z,49.16
2022-11-10T22:47:11.806Z,49.20
2022-11-10T22:49:45.498Z,49.22
2022-11-10T22:51:05.953Z,49.25
2022-11-10T22:52:27.256Z,49.31
2022-11-10T22:53:49.005Z,49.31
2022-11-10T22:55:09.784Z,49.27
2022-11-10T22:56:31.076Z,49.27
2022-11-10T22:57:53.037Z,49.27
2022-11-10T22:59:15.206Z,49.25
2022-11-10T23:00:36.774Z,49.25
2022-11-10T23:01:57.632Z,49.28
2022-11-10T23:03:18.480Z,49.30
2022-11-10T23:04:39.618Z,49.33
2022-11-10T23:06:00.433Z,49.34
2022-11-10T23:07:21.211Z,49.31
2022-11-10T23:08:43.075Z,49.33
2022-11-10T23:11:19.097Z,49.34
2022-11-10T23:12:39.553Z,49.35
2022-11-10T23:14:01.050Z,49.38
2022-11-10T23:15:22.936Z,49.41
2022-11-10T23:16:43.745Z,49.35
2022-11-10T23:18:06.776Z,49.33
2022-11-10T23:19:26.685Z,49.33
2022-11-10T23:20:47.409Z,49.31
2022-11-10T23:22:08.591Z,49.33
2022-11-10T23:23:33.490Z,49.33
2022-11-10T23:24:57.167Z,49.35
2022-11-10T23:26:21.742Z,49.38
2022-11-10T23:27:42.123Z,49.43
2022-11-10T23:29:03.680Z,49.43
2022-11-10T23:30:24.631Z,49.46
2022-11-10T23:31:45.537Z,49.49
2022-11-10T23:33:06.242Z,49.49
2022-11-10T23:34:26.766Z,49.51
2022-11-10T23:35:47.580Z,49.52
2022-11-10T23:37:09.021Z,49.57
2022-11-10T23:38:31.206Z,49.54
2022-11-10T23:39:52.644Z,49.58
2022-11-10T23:41:15.563Z,49.58
2022-11-10T23:42:36.869Z,49.59
2022-11-10T23:43:57.748Z,49.58
2022-11-10T23:45:18.464Z,49.60
2022-11-10T23:46:39.305Z,49.66
2022-11-10T23:48:05.664Z,49.65
2022-11-10T23:49:22.647Z,49.67
2022-11-10T23:50:44.650Z,49.66
2022-11-10T23:52:05.037Z,49.67
2022-11-10T23:53:27.441Z,49.75
2022-11-10T23:54:49.019Z,49.71
2022-11-10T23:56:12.532Z,49.70
2022-11-10T23:57:32.921Z,49.72
2022-11-10T23:58:54.995Z,49.74
